sensor_id;sensor_type;location;lat;lon;timestamp;P1;durP1;ratioP1;P2;durP2;ratioP2
21352;SDS011;10834;52.268;6.770;2022-12-18T00:00:11;89.83;;;32.97;;
21352;SDS011;10834;52.268;6.770;2022-12-18T00:02:57;80.37;;;32.20;;
21352;SDS011;10834;52.268;6.770;2022-12-18T00:05:47;76.60;;;29.20;;
21352;SDS011;10834;52.268;6.770;2022-12-18T00:08:34;76.33;;;31.90;;
21352;SDS011;10834;52.268;6.770;2022-12-18T00:11:21;70.27;;;28.33;;
21352;SDS011;10834;52.268;6.770;2022-12-18T00:14:08;83.10;;;29.87;;
21352;SDS011;10834;52.268;6.770;2022-12-18T00:16:58;64.33;;;26.63;;
21352;SDS011;10834;52.268;6.770;2022-12-18T00:19:46;76.73;;;29.20;;
21352;SDS011;10834;52.268;6.770;2022-12-18T00:22:32;67.40;;;26.97;;
21352;SDS011;10834;52.268;6.770;2022-12-18T00:25:18;64.33;;;27.43;;
21352;SDS011;10834;52.268;6.770;2022-12-18T00:28:04;63.97;;;25.17;;
21352;SDS011;10834;52.268;6.770;2022-12-18T00:30:50;64.40;;;27.87;;
21352;SDS011;10834;52.268;6.770;2022-12-18T00:33:44;62.50;;;25.60;;
21352;SDS011;10834;52.268;6.770;2022-12-18T00:36:31;54.63;;;23.30;;
21352;SDS011;10834;52.268;6.770;2022-12-18T00:39:19;55.80;;;21.53;;
21352;SDS011;10834;52.268;6.770;2022-12-18T00:42:07;53.60;;;22.40;;
21352;SDS011;10834;52.268;6.770;2022-12-18T00:45:13;48.43;;;19.93;;
21352;SDS011;10834;52.268;6.770;2022-12-18T00:48:00;50.67;;;20.67;;
21352;SDS011;10834;52.268;6.770;2022-12-18T00:50:49;50.07;;;21.60;;
21352;SDS011;10834;52.268;6.770;2022-12-18T00:53:35;50.93;;;20.67;;
21352;SDS011;10834;52.268;6.770;2022-12-18T00:56:22;58.23;;;25.20;;
21352;SDS011;10834;52.268;6.770;2022-12-18T00:59:08;51.90;;;23.97;;
21352;SDS011;10834;52.268;6.770;2022-12-18T01:01:54;56.40;;;24.23;;
21352;SDS011;10834;52.268;6.770;2022-12-18T01:04:40;54.33;;;23.13;;
21352;SDS011;10834;52.268;6.770;2022-12-18T01:07:26;55.53;;;22.87;;
21352;SDS011;10834;52.268;6.770;2022-12-18T01:10:13;47.17;;;21.23;;
21352;SDS011;10834;52.268;6.770;2022-12-18T01:12:59;54.50;;;21.83;;
21352;SDS011;10834;52.268;6.770;2022-12-18T01:15:49;54.27;;;21.73;;
21352;SDS011;10834;52.268;6.770;2022-12-18T01:18:35;52.30;;;22.70;;
21352;SDS011;10834;52.268;6.770;2022-12-18T01:21:22;56.47;;;23.17;;
21352;SDS011;10834;52.268;6.770;2022-12-18T01:24:09;48.27;;;21.57;;
21352;SDS011;10834;52.268;6.770;2022-12-18T01:26:57;40.07;;;19.83;;
21352;SDS011;10834;52.268;6.770;2022-12-18T01:29:43;44.93;;;20.37;;
21352;SDS011;10834;52.268;6.770;2022-12-18T01:32:30;45.27;;;20.17;;
21352;SDS011;10834;52.268;6.770;2022-12-18T01:35:17;46.67;;;20.93;;
21352;SDS011;10834;52.268;6.770;2022-12-18T01:38:03;45.03;;;19.27;;
21352;SDS011;10834;52.268;6.770;2022-12-18T01:40:49;45.93;;;20.00;;
21352;SDS011;10834;52.268;6.770;2022-12-18T01:46:33;49.57;;;19.73;;
21352;SDS011;10834;52.268;6.770;2022-12-18T01:49:20;54.07;;;20.07;;
21352;SDS011;10834;52.268;6.770;2022-12-18T01:52:06;46.20;;;21.13;;
21352;SDS011;10834;52.268;6.770;2022-12-18T01:54:52;48.60;;;19.60;;
21352;SDS011;10834;52.268;6.770;2022-12-18T01:57:39;48.00;;;20.07;;
21352;SDS011;10834;52.268;6.770;2022-12-18T02:00:27;53.43;;;20.87;;
21352;SDS011;10834;52.268;6.770;2022-12-18T02:03:13;44.73;;;19.90;;
21352;SDS011;10834;52.268;6.770;2022-12-18T02:09:15;43.97;;;19.77;;
21352;SDS011;10834;52.268;6.770;2022-12-18T02:12:29;45.77;;;17.87;;
21352;SDS011;10834;52.268;6.770;2022-12-18T02:15:38;45.77;;;18.23;;
21352;SDS011;10834;52.268;6.770;2022-12-18T02:18:33;43.40;;;19.27;;
21352;SDS011;10834;52.268;6.770;2022-12-18T02:21:32;47.63;;;19.20;;
21352;SDS011;10834;52.268;6.770;2022-12-18T02:24:30;45.03;;;18.37;;
21352;SDS011;10834;52.268;6.770;2022-12-18T02:27:27;40.13;;;18.23;;
21352;SDS011;10834;52.268;6.770;2022-12-18T02:30:17;43.47;;;18.17;;
21352;SDS011;10834;52.268;6.770;2022-12-18T02:33:05;43.40;;;19.17;;
21352;SDS011;10834;52.268;6.770;2022-12-18T02:35:53;38.53;;;19.30;;
21352;SDS011;10834;52.268;6.770;2022-12-18T02:38:41;38.20;;;17.83;;
21352;SDS011;10834;52.268;6.770;2022-12-18T02:41:28;41.43;;;18.03;;
21352;SDS011;10834;52.268;6.770;2022-12-18T02:44:16;45.03;;;17.27;;
21352;SDS011;10834;52.268;6.770;2022-12-18T02:47:02;41.80;;;17.30;;
21352;SDS011;10834;52.268;6.770;2022-12-18T02:49:53;32.13;;;15.93;;
21352;SDS011;10834;52.268;6.770;2022-12-18T02:55:59;36.83;;;16.40;;
21352;SDS011;10834;52.268;6.770;2022-12-18T03:02:27;36.77;;;17.17;;
21352;SDS011;10834;52.268;6.770;2022-12-18T03:05:47;38.67;;;16.40;;
21352;SDS011;10834;52.268;6.770;2022-12-18T03:08:39;40.37;;;16.47;;
21352;SDS011;10834;52.268;6.770;2022-12-18T03:11:30;33.80;;;16.10;;
21352;SDS011;10834;52.268;6.770;2022-12-18T03:14:39;41.23;;;17.03;;
21352;SDS011;10834;52.268;6.770;2022-12-18T03:17:27;35.87;;;16.13;;
21352;SDS011;10834;52.268;6.770;2022-12-18T03:20:17;30.90;;;16.80;;
21352;SDS011;10834;52.268;6.770;2022-12-18T03:23:09;42.63;;;16.17;;
21352;SDS011;10834;52.268;6.770;2022-12-18T03:26:04;26.73;;;14.67;;
21352;SDS011;10834;52.268;6.770;2022-12-18T03:28:53;32.70;;;14.73;;
21352;SDS011;10834;52.268;6.770;2022-12-18T03:31:47;33.10;;;15.60;;
21352;SDS011;10834;52.268;6.770;2022-12-18T03:34:37;28.63;;;15.07;;
21352;SDS011;10834;52.268;6.770;2022-12-18T03:37:25;34.73;;;15.13;;
21352;SDS011;10834;52.268;6.770;2022-12-18T03:40:12;36.97;;;16.30;;
21352;SDS011;10834;52.268;6.770;2022-12-18T03:43:00;29.93;;;14.67;;
21352;SDS011;10834;52.268;6.770;2022-12-18T03:45:52;31.50;;;15.17;;
21352;SDS011;10834;52.268;6.770;2022-12-18T03:48:48;28.73;;;14.13;;
21352;SDS011;10834;52.268;6.770;2022-12-18T03:51:48;29.23;;;14.53;;
21352;SDS011;10834;52.268;6.770;2022-12-18T03:54:56;32.23;;;16.37;;
21352;SDS011;10834;52.268;6.770;2022-12-18T03:57:43;29.90;;;14.13;;
21352;SDS011;10834;52.268;6.770;2022-12-18T04:00:31;26.97;;;13.50;;
21352;SDS011;10834;52.268;6.770;2022-12-18T04:03:18;32.17;;;14.97;;
21352;SDS011;10834;52.268;6.770;2022-12-18T04:06:05;30.87;;;14.23;;
21352;SDS011;10834;52.268;6.770;2022-12-18T04:08:52;33.03;;;14.33;;
21352;SDS011;10834;52.268;6.770;2022-12-18T04:11:40;34.13;;;13.30;;
21352;SDS011;10834;52.268;6.770;2022-12-18T04:14:27;30.00;;;13.13;;
21352;SDS011;10834;52.268;6.770;2022-12-18T04:17:13;29.43;;;14.67;;
21352;SDS011;10834;52.268;6.770;2022-12-18T04:19:59;28.10;;;14.43;;
21352;SDS011;10834;52.268;6.770;2022-12-18T04:22:45;29.20;;;13.47;;
21352;SDS011;10834;52.268;6.770;2022-12-18T04:25:33;35.37;;;15.67;;
21352;SDS011;10834;52.268;6.770;2022-12-18T04:28:19;28.47;;;14.17;;
21352;SDS011;10834;52.268;6.770;2022-12-18T04:31:05;31.27;;;13.50;;
21352;SDS011;10834;52.268;6.770;2022-12-18T04:33:52;31.33;;;14.93;;
21352;SDS011;10834;52.268;6.770;2022-12-18T04:36:38;35.37;;;13.57;;
21352;SDS011;10834;52.268;6.770;2022-12-18T04:39:24;27.43;;;12.40;;
21352;SDS011;10834;52.268;6.770;2022-12-18T04:42:10;26.07;;;12.93;;
21352;SDS011;10834;52.268;6.770;2022-12-18T04:44:56;28.97;;;14.70;;
21352;SDS011;10834;52.268;6.770;2022-12-18T04:47:42;35.70;;;14.50;;
21352;SDS011;10834;52.268;6.770;2022-12-18T04:50:28;23.20;;;13.10;;
21352;SDS011;10834;52.268;6.770;2022-12-18T04:53:15;30.80;;;14.33;;
21352;SDS011;10834;52.268;6.770;2022-12-18T04:56:02;21.80;;;12.37;;
21352;SDS011;10834;52.268;6.770;2022-12-18T04:58:55;23.57;;;12.03;;
21352;SDS011;10834;52.268;6.770;2022-12-18T05:01:41;25.70;;;12.37;;
21352;SDS011;10834;52.268;6.770;2022-12-18T05:04:27;26.43;;;12.40;;
21352;SDS011;10834;52.268;6.770;2022-12-18T05:07:13;24.40;;;12.23;;
21352;SDS011;10834;52.268;6.770;2022-12-18T05:09:59;26.80;;;11.87;;
21352;SDS011;10834;52.268;6.770;2022-12-18T05:12:45;24.73;;;11.73;;
21352;SDS011;10834;52.268;6.770;2022-12-18T05:15:50;21.33;;;11.30;;
21352;SDS011;10834;52.268;6.770;2022-12-18T05:18:37;23.43;;;11.43;;
21352;SDS011;10834;52.268;6.770;2022-12-18T05:21:24;20.67;;;11.67;;
21352;SDS011;10834;52.268;6.770;2022-12-18T05:24:10;24.30;;;11.63;;
21352;SDS011;10834;52.268;6.770;2022-12-18T05:26:56;21.27;;;11.63;;
21352;SDS011;10834;52.268;6.770;2022-12-18T05:29:42;19.57;;;10.57;;
21352;SDS011;10834;52.268;6.770;2022-12-18T05:32:28;22.80;;;11.67;;
21352;SDS011;10834;52.268;6.770;2022-12-18T05:35:14;16.90;;;10.63;;
21352;SDS011;10834;52.268;6.770;2022-12-18T05:38:01;23.30;;;12.23;;
21352;SDS011;10834;52.268;6.770;2022-12-18T05:40:47;23.67;;;11.13;;
21352;SDS011;10834;52.268;6.770;2022-12-18T05:43:37;22.97;;;11.57;;
21352;SDS011;10834;52.268;6.770;2022-12-18T05:46:24;23.03;;;11.10;;
21352;SDS011;10834;52.268;6.770;2022-12-18T05:49:10;20.83;;;11.60;;
21352;SDS011;10834;52.268;6.770;2022-12-18T05:51:56;20.07;;;10.63;;
21352;SDS011;10834;52.268;6.770;2022-12-18T05:54:42;18.07;;;10.13;;
21352;SDS011;10834;52.268;6.770;2022-12-18T05:57:28;19.97;;;10.83;;
21352;SDS011;10834;52.268;6.770;2022-12-18T06:00:14;22.30;;;10.70;;
21352;SDS011;10834;52.268;6.770;2022-12-18T06:03:01;16.57;;;10.10;;
21352;SDS011;10834;52.268;6.770;2022-12-18T06:05:47;17.40;;;10.63;;
21352;SDS011;10834;52.268;6.770;2022-12-18T06:08:33;19.83;;;10.13;;
21352;SDS011;10834;52.268;6.770;2022-12-18T06:11:21;18.27;;;10.03;;
21352;SDS011;10834;52.268;6.770;2022-12-18T06:14:11;18.77;;;9.77;;
21352;SDS011;10834;52.268;6.770;2022-12-18T06:16:57;24.47;;;11.33;;
21352;SDS011;10834;52.268;6.770;2022-12-18T06:19:43;23.30;;;10.60;;
21352;SDS011;10834;52.268;6.770;2022-12-18T06:22:30;21.23;;;10.77;;
21352;SDS011;10834;52.268;6.770;2022-12-18T06:25:17;24.67;;;10.23;;
21352;SDS011;10834;52.268;6.770;2022-12-18T06:28:03;19.13;;;10.37;;
21352;SDS011;10834;52.268;6.770;2022-12-18T06:30:49;18.97;;;10.73;;
21352;SDS011;10834;52.268;6.770;2022-12-18T06:33:36;18.23;;;10.20;;
21352;SDS011;10834;52.268;6.770;2022-12-18T06:36:22;21.87;;;11.33;;
21352;SDS011;10834;52.268;6.770;2022-12-18T06:39:08;20.57;;;12.00;;
21352;SDS011;10834;52.268;6.770;2022-12-18T06:41:55;17.67;;;9.57;;
21352;SDS011;10834;52.268;6.770;2022-12-18T06:44:41;20.27;;;10.60;;
21352;SDS011;10834;52.268;6.770;2022-12-18T06:47:27;19.53;;;10.10;;
21352;SDS011;10834;52.268;6.770;2022-12-18T06:50:13;13.67;;;8.83;;
21352;SDS011;10834;52.268;6.770;2022-12-18T06:52:59;20.50;;;10.60;;
21352;SDS011;10834;52.268;6.770;2022-12-18T06:55:45;18.87;;;10.70;;
21352;SDS011;10834;52.268;6.770;2022-12-18T06:58:32;17.53;;;10.20;;
21352;SDS011;10834;52.268;6.770;2022-12-18T07:01:18;18.77;;;10.27;;
21352;SDS011;10834;52.268;6.770;2022-12-18T07:04:04;14.67;;;9.20;;
21352;SDS011;10834;52.268;6.770;2022-12-18T07:06:50;17.97;;;10.20;;
21352;SDS011;10834;52.268;6.770;2022-12-18T07:09:36;15.13;;;8.17;;
21352;SDS011;10834;52.268;6.770;2022-12-18T07:12:22;22.73;;;10.40;;
21352;SDS011;10834;52.268;6.770;2022-12-18T07:15:08;21.03;;;10.67;;
21352;SDS011;10834;52.268;6.770;2022-12-18T07:17:54;19.53;;;10.03;;
21352;SDS011;10834;52.268;6.770;2022-12-18T07:20:40;18.60;;;10.17;;
21352;SDS011;10834;52.268;6.770;2022-12-18T07:23:26;20.13;;;10.33;;
21352;SDS011;10834;52.268;6.770;2022-12-18T07:26:13;19.17;;;10.57;;
21352;SDS011;10834;52.268;6.770;2022-12-18T07:29:00;16.67;;;10.20;;
21352;SDS011;10834;52.268;6.770;2022-12-18T07:31:46;18.47;;;10.10;;
21352;SDS011;10834;52.268;6.770;2022-12-18T07:34:33;20.07;;;10.20;;
21352;SDS011;10834;52.268;6.770;2022-12-18T07:37:19;17.93;;;8.80;;
21352;SDS011;10834;52.268;6.770;2022-12-18T07:40:05;20.53;;;9.53;;
21352;SDS011;10834;52.268;6.770;2022-12-18T07:42:51;15.80;;;9.53;;
21352;SDS011;10834;52.268;6.770;2022-12-18T07:45:37;21.33;;;11.30;;
21352;SDS011;10834;52.268;6.770;2022-12-18T07:48:23;18.00;;;10.53;;
21352;SDS011;10834;52.268;6.770;2022-12-18T07:51:10;13.40;;;8.93;;
21352;SDS011;10834;52.268;6.770;2022-12-18T07:53:56;15.63;;;8.70;;
21352;SDS011;10834;52.268;6.770;2022-12-18T07:56:42;17.73;;;10.53;;
21352;SDS011;10834;52.268;6.770;2022-12-18T07:59:28;22.57;;;10.30;;
21352;SDS011;10834;52.268;6.770;2022-12-18T08:02:14;22.80;;;11.83;;
21352;SDS011;10834;52.268;6.770;2022-12-18T08:05:00;20.30;;;11.10;;
21352;SDS011;10834;52.268;6.770;2022-12-18T08:07:47;19.00;;;10.70;;
21352;SDS011;10834;52.268;6.770;2022-12-18T08:10:33;26.37;;;12.30;;
21352;SDS011;10834;52.268;6.770;2022-12-18T08:13:19;22.60;;;11.37;;
21352;SDS011;10834;52.268;6.770;2022-12-18T08:16:06;19.60;;;10.47;;
21352;SDS011;10834;52.268;6.770;2022-12-18T08:18:53;18.40;;;10.53;;
21352;SDS011;10834;52.268;6.770;2022-12-18T08:21:39;19.20;;;9.97;;
21352;SDS011;10834;52.268;6.770;2022-12-18T08:24:25;17.43;;;9.77;;
21352;SDS011;10834;52.268;6.770;2022-12-18T08:27:12;19.10;;;10.40;;
21352;SDS011;10834;52.268;6.770;2022-12-18T08:29:58;20.67;;;9.07;;
21352;SDS011;10834;52.268;6.770;2022-12-18T08:32:44;18.40;;;9.87;;
21352;SDS011;10834;52.268;6.770;2022-12-18T08:35:30;17.27;;;9.57;;
21352;SDS011;10834;52.268;6.770;2022-12-18T08:38:19;16.37;;;9.80;;
21352;SDS011;10834;52.268;6.770;2022-12-18T08:41:07;15.83;;;9.80;;
21352;SDS011;10834;52.268;6.770;2022-12-18T08:43:55;16.00;;;8.33;;
21352;SDS011;10834;52.268;6.770;2022-12-18T08:46:59;16.97;;;9.70;;
21352;SDS011;10834;52.268;6.770;2022-12-18T08:49:45;20.83;;;12.50;;
21352;SDS011;10834;52.268;6.770;2022-12-18T08:52:32;18.57;;;10.00;;
21352;SDS011;10834;52.268;6.770;2022-12-18T08:55:18;15.90;;;10.13;;
21352;SDS011;10834;52.268;6.770;2022-12-18T08:58:05;17.13;;;9.47;;
21352;SDS011;10834;52.268;6.770;2022-12-18T09:00:51;17.10;;;9.63;;
21352;SDS011;10834;52.268;6.770;2022-12-18T09:03:37;12.77;;;9.00;;
21352;SDS011;10834;52.268;6.770;2022-12-18T09:06:24;22.87;;;11.90;;
21352;SDS011;10834;52.268;6.770;2022-12-18T09:09:12;18.07;;;10.27;;
21352;SDS011;10834;52.268;6.770;2022-12-18T09:11:58;29.07;;;14.17;;
21352;SDS011;10834;52.268;6.770;2022-12-18T09:14:44;15.90;;;10.50;;
21352;SDS011;10834;52.268;6.770;2022-12-18T09:17:30;15.40;;;10.60;;
21352;SDS011;10834;52.268;6.770;2022-12-18T09:20:16;11.60;;;8.20;;
21352;SDS011;10834;52.268;6.770;2022-12-18T09:23:03;19.23;;;10.03;;
21352;SDS011;10834;52.268;6.770;2022-12-18T09:25:49;15.93;;;8.60;;
21352;SDS011;10834;52.268;6.770;2022-12-18T09:28:35;13.80;;;8.60;;
21352;SDS011;10834;52.268;6.770;2022-12-18T09:31:22;16.37;;;8.93;;
21352;SDS011;10834;52.268;6.770;2022-12-18T09:34:10;22.73;;;12.10;;
21352;SDS011;10834;52.268;6.770;2022-12-18T09:36:56;17.90;;;9.23;;
21352;SDS011;10834;52.268;6.770;2022-12-18T09:39:42;41.03;;;18.90;;
21352;SDS011;10834;52.268;6.770;2022-12-18T09:42:28;22.67;;;11.83;;
21352;SDS011;10834;52.268;6.770;2022-12-18T09:45:14;15.00;;;9.10;;
21352;SDS011;10834;52.268;6.770;2022-12-18T09:48:02;15.13;;;9.03;;
21352;SDS011;10834;52.268;6.770;2022-12-18T09:50:50;15.47;;;9.40;;
21352;SDS011;10834;52.268;6.770;2022-12-18T09:53:39;13.03;;;8.10;;
21352;SDS011;10834;52.268;6.770;2022-12-18T09:56:31;27.07;;;13.73;;
21352;SDS011;10834;52.268;6.770;2022-12-18T09:59:34;12.93;;;8.03;;
21352;SDS011;10834;52.268;6.770;2022-12-18T10:02:23;11.07;;;8.17;;
21352;SDS011;10834;52.268;6.770;2022-12-18T10:05:12;10.93;;;7.57;;
21352;SDS011;10834;52.268;6.770;2022-12-18T10:11:12;9.33;;;6.30;;
21352;SDS011;10834;52.268;6.770;2022-12-18T10:20:46;10.27;;;6.63;;
21352;SDS011;10834;52.268;6.770;2022-12-18T10:26:27;13.07;;;7.93;;
21352;SDS011;10834;52.268;6.770;2022-12-18T10:29:14;11.93;;;7.20;;
21352;SDS011;10834;52.268;6.770;2022-12-18T10:32:01;15.57;;;8.23;;
21352;SDS011;10834;52.268;6.770;2022-12-18T10:34:48;11.10;;;6.77;;
21352;SDS011;10834;52.268;6.770;2022-12-18T10:37:35;12.13;;;6.90;;
21352;SDS011;10834;52.268;6.770;2022-12-18T10:40:21;12.57;;;7.43;;
21352;SDS011;10834;52.268;6.770;2022-12-18T10:43:12;9.83;;;6.40;;
21352;SDS011;10834;52.268;6.770;2022-12-18T10:48:55;12.00;;;7.17;;
21352;SDS011;10834;52.268;6.770;2022-12-18T10:51:43;11.63;;;6.80;;
21352;SDS011;10834;52.268;6.770;2022-12-18T10:54:29;8.87;;;6.17;;
21352;SDS011;10834;52.268;6.770;2022-12-18T11:00:21;10.87;;;7.20;;
21352;SDS011;10834;52.268;6.770;2022-12-18T11:03:34;8.00;;;5.87;;
21352;SDS011;10834;52.268;6.770;2022-12-18T11:06:23;9.77;;;6.47;;
21352;SDS011;10834;52.268;6.770;2022-12-18T11:09:20;9.47;;;5.97;;
21352;SDS011;10834;52.268;6.770;2022-12-18T11:12:15;11.73;;;6.90;;
21352;SDS011;10834;52.268;6.770;2022-12-18T11:15:04;11.23;;;5.60;;
21352;SDS011;10834;52.268;6.770;2022-12-18T11:17:50;10.67;;;6.40;;
21352;SDS011;10834;52.268;6.770;2022-12-18T11:20:38;9.60;;;5.90;;
21352;SDS011;10834;52.268;6.770;2022-12-18T11:23:24;7.60;;;5.43;;
21352;SDS011;10834;52.268;6.770;2022-12-18T11:26:12;9.83;;;5.30;;
21352;SDS011;10834;52.268;6.770;2022-12-18T11:29:09;11.60;;;5.83;;
21352;SDS011;10834;52.268;6.770;2022-12-18T11:38:23;14.83;;;9.80;;
21352;SDS011;10834;52.268;6.770;2022-12-18T11:41:19;14.57;;;9.80;;
21352;SDS011;10834;52.268;6.770;2022-12-18T11:44:07;12.83;;;8.33;;
21352;SDS011;10834;52.268;6.770;2022-12-18T11:47:03;13.37;;;8.50;;
21352;SDS011;10834;52.268;6.770;2022-12-18T11:50:00;9.40;;;6.27;;
21352;SDS011;10834;52.268;6.770;2022-12-18T11:52:48;11.07;;;6.63;;
21352;SDS011;10834;52.268;6.770;2022-12-18T11:55:56;10.50;;;6.07;;
21352;SDS011;10834;52.268;6.770;2022-12-18T12:05:00;22.73;;;16.83;;
21352;SDS011;10834;52.268;6.770;2022-12-18T12:08:00;12.40;;;8.17;;
21352;SDS011;10834;52.268;6.770;2022-12-18T12:11:33;10.77;;;6.47;;
21352;SDS011;10834;52.268;6.770;2022-12-18T12:15:03;7.00;;;5.70;;
21352;SDS011;10834;52.268;6.770;2022-12-18T12:17:55;9.93;;;6.97;;
21352;SDS011;10834;52.268;6.770;2022-12-18T12:24:05;11.60;;;6.70;;
21352;SDS011;10834;52.268;6.770;2022-12-18T12:30:07;10.83;;;6.63;;
21352;SDS011;10834;52.268;6.770;2022-12-18T12:33:05;9.10;;;5.77;;
21352;SDS011;10834;52.268;6.770;2022-12-18T12:36:08;13.77;;;7.63;;
21352;SDS011;10834;52.268;6.770;2022-12-18T12:39:23;10.17;;;6.17;;
21352;SDS011;10834;52.268;6.770;2022-12-18T12:42:23;11.73;;;7.17;;
21352;SDS011;10834;52.268;6.770;2022-12-18T12:45:47;11.43;;;6.73;;
21352;SDS011;10834;52.268;6.770;2022-12-18T12:48:49;10.70;;;7.17;;
21352;SDS011;10834;52.268;6.770;2022-12-18T12:51:40;10.03;;;7.03;;
21352;SDS011;10834;52.268;6.770;2022-12-18T12:54:30;12.70;;;8.30;;
21352;SDS011;10834;52.268;6.770;2022-12-18T12:57:20;9.20;;;7.27;;
21352;SDS011;10834;52.268;6.770;2022-12-18T13:00:20;13.27;;;9.07;;
21352;SDS011;10834;52.268;6.770;2022-12-18T13:03:15;14.73;;;9.27;;
21352;SDS011;10834;52.268;6.770;2022-12-18T13:06:09;9.47;;;7.00;;
21352;SDS011;10834;52.268;6.770;2022-12-18T13:09:02;14.33;;;8.37;;
21352;SDS011;10834;52.268;6.770;2022-12-18T13:11:49;17.50;;;9.10;;
21352;SDS011;10834;52.268;6.770;2022-12-18T13:14:54;13.33;;;7.73;;
21352;SDS011;10834;52.268;6.770;2022-12-18T13:18:17;9.27;;;6.20;;
21352;SDS011;10834;52.268;6.770;2022-12-18T13:21:07;10.83;;;6.70;;
21352;SDS011;10834;52.268;6.770;2022-12-18T13:24:24;10.13;;;5.93;;
21352;SDS011;10834;52.268;6.770;2022-12-18T13:44:51;13.20;;;6.80;;
21352;SDS011;10834;52.268;6.770;2022-12-18T13:47:37;7.93;;;6.17;;
21352;SDS011;10834;52.268;6.770;2022-12-18T13:50:24;9.63;;;6.50;;
21352;SDS011;10834;52.268;6.770;2022-12-18T13:53:30;13.60;;;6.50;;
21352;SDS011;10834;52.268;6.770;2022-12-18T13:56:42;12.23;;;6.20;;
21352;SDS011;10834;52.268;6.770;2022-12-18T14:02:23;14.90;;;7.73;;
21352;SDS011;10834;52.268;6.770;2022-12-18T14:05:30;11.80;;;6.67;;
21352;SDS011;10834;52.268;6.770;2022-12-18T14:08:20;12.40;;;6.77;;
21352;SDS011;10834;52.268;6.770;2022-12-18T14:11:06;13.47;;;7.60;;
21352;SDS011;10834;52.268;6.770;2022-12-18T14:14:03;13.47;;;6.83;;
21352;SDS011;10834;52.268;6.770;2022-12-18T14:16:52;9.77;;;6.53;;
21352;SDS011;10834;52.268;6.770;2022-12-18T14:19:42;11.67;;;7.40;;
21352;SDS011;10834;52.268;6.770;2022-12-18T14:22:33;13.37;;;7.37;;
21352;SDS011;10834;52.268;6.770;2022-12-18T14:28:13;13.47;;;7.47;;
21352;SDS011;10834;52.268;6.770;2022-12-18T14:31:00;13.93;;;6.33;;
21352;SDS011;10834;52.268;6.770;2022-12-18T14:33:46;12.93;;;7.27;;
21352;SDS011;10834;52.268;6.770;2022-12-18T14:36:33;8.50;;;6.43;;
21352;SDS011;10834;52.268;6.770;2022-12-18T14:39:19;10.70;;;6.67;;
21352;SDS011;10834;52.268;6.770;2022-12-18T14:42:05;9.90;;;6.90;;
21352;SDS011;10834;52.268;6.770;2022-12-18T14:44:51;11.63;;;8.13;;
21352;SDS011;10834;52.268;6.770;2022-12-18T14:47:37;12.67;;;9.30;;
21352;SDS011;10834;52.268;6.770;2022-12-18T14:50:23;17.53;;;10.43;;
21352;SDS011;10834;52.268;6.770;2022-12-18T14:53:18;14.17;;;9.13;;
21352;SDS011;10834;52.268;6.770;2022-12-18T14:56:14;13.17;;;8.80;;
21352;SDS011;10834;52.268;6.770;2022-12-18T14:59:12;15.90;;;9.10;;
21352;SDS011;10834;52.268;6.770;2022-12-18T15:05:01;15.63;;;10.40;;
21352;SDS011;10834;52.268;6.770;2022-12-18T15:07:50;11.97;;;9.33;;
21352;SDS011;10834;52.268;6.770;2022-12-18T15:10:45;15.20;;;9.57;;
21352;SDS011;10834;52.268;6.770;2022-12-18T15:13:33;17.87;;;11.70;;
21352;SDS011;10834;52.268;6.770;2022-12-18T15:16:19;16.43;;;11.03;;
21352;SDS011;10834;52.268;6.770;2022-12-18T15:19:06;14.47;;;11.07;;
21352;SDS011;10834;52.268;6.770;2022-12-18T15:21:53;15.43;;;10.67;;
21352;SDS011;10834;52.268;6.770;2022-12-18T15:24:39;18.73;;;12.77;;
21352;SDS011;10834;52.268;6.770;2022-12-18T15:27:29;13.57;;;8.10;;
21352;SDS011;10834;52.268;6.770;2022-12-18T15:30:21;15.43;;;10.73;;
21352;SDS011;10834;52.268;6.770;2022-12-18T15:33:30;18.90;;;9.77;;
21352;SDS011;10834;52.268;6.770;2022-12-18T15:36:18;15.43;;;9.67;;
21352;SDS011;10834;52.268;6.770;2022-12-18T15:39:06;16.77;;;9.37;;
21352;SDS011;10834;52.268;6.770;2022-12-18T15:41:55;16.47;;;10.23;;
21352;SDS011;10834;52.268;6.770;2022-12-18T15:45:00;14.80;;;9.87;;
21352;SDS011;10834;52.268;6.770;2022-12-18T15:47:46;17.27;;;9.37;;
21352;SDS011;10834;52.268;6.770;2022-12-18T15:50:32;17.13;;;9.77;;
21352;SDS011;10834;52.268;6.770;2022-12-18T15:53:18;16.80;;;9.43;;
21352;SDS011;10834;52.268;6.770;2022-12-18T15:56:07;15.20;;;10.53;;
21352;SDS011;10834;52.268;6.770;2022-12-18T15:59:15;19.40;;;10.53;;
21352;SDS011;10834;52.268;6.770;2022-12-18T16:02:07;16.00;;;9.77;;
21352;SDS011;10834;52.268;6.770;2022-12-18T16:05:01;15.27;;;9.03;;
21352;SDS011;10834;52.268;6.770;2022-12-18T16:07:47;16.13;;;10.73;;
21352;SDS011;10834;52.268;6.770;2022-12-18T16:10:33;15.13;;;9.70;;
21352;SDS011;10834;52.268;6.770;2022-12-18T16:13:20;16.17;;;9.87;;
21352;SDS011;10834;52.268;6.770;2022-12-18T16:16:07;17.83;;;9.97;;
21352;SDS011;10834;52.268;6.770;2022-12-18T16:18:54;28.20;;;17.37;;
21352;SDS011;10834;52.268;6.770;2022-12-18T16:21:40;18.17;;;11.63;;
21352;SDS011;10834;52.268;6.770;2022-12-18T16:24:27;21.87;;;13.40;;
21352;SDS011;10834;52.268;6.770;2022-12-18T16:27:14;22.23;;;14.53;;
21352;SDS011;10834;52.268;6.770;2022-12-18T16:30:00;22.13;;;13.70;;
21352;SDS011;10834;52.268;6.770;2022-12-18T16:32:46;14.33;;;8.80;;
21352;SDS011;10834;52.268;6.770;2022-12-18T16:35:33;15.33;;;9.33;;
21352;SDS011;10834;52.268;6.770;2022-12-18T16:38:19;16.97;;;9.73;;
21352;SDS011;10834;52.268;6.770;2022-12-18T16:41:23;32.43;;;20.70;;
21352;SDS011;10834;52.268;6.770;2022-12-18T16:44:18;14.20;;;8.90;;
21352;SDS011;10834;52.268;6.770;2022-12-18T16:47:05;27.47;;;18.87;;
21352;SDS011;10834;52.268;6.770;2022-12-18T16:49:51;20.27;;;12.50;;
21352;SDS011;10834;52.268;6.770;2022-12-18T16:52:38;26.60;;;17.20;;
21352;SDS011;10834;52.268;6.770;2022-12-18T16:55:24;15.07;;;9.87;;
21352;SDS011;10834;52.268;6.770;2022-12-18T16:58:10;18.63;;;10.67;;
21352;SDS011;10834;52.268;6.770;2022-12-18T17:00:56;27.63;;;20.23;;
21352;SDS011;10834;52.268;6.770;2022-12-18T17:03:42;22.90;;;12.10;;
21352;SDS011;10834;52.268;6.770;2022-12-18T17:06:29;13.53;;;9.07;;
21352;SDS011;10834;52.268;6.770;2022-12-18T17:09:17;21.33;;;12.03;;
21352;SDS011;10834;52.268;6.770;2022-12-18T17:12:10;21.73;;;10.33;;
21352;SDS011;10834;52.268;6.770;2022-12-18T17:14:56;17.70;;;10.90;;
21352;SDS011;10834;52.268;6.770;2022-12-18T17:17:42;22.17;;;13.27;;
21352;SDS011;10834;52.268;6.770;2022-12-18T17:20:29;20.23;;;12.63;;
21352;SDS011;10834;52.268;6.770;2022-12-18T17:23:15;18.03;;;10.17;;
21352;SDS011;10834;52.268;6.770;2022-12-18T17:26:01;17.80;;;11.10;;
21352;SDS011;10834;52.268;6.770;2022-12-18T17:28:48;19.97;;;10.47;;
21352;SDS011;10834;52.268;6.770;2022-12-18T17:31:35;19.73;;;13.00;;
21352;SDS011;10834;52.268;6.770;2022-12-18T17:34:21;20.50;;;12.23;;
21352;SDS011;10834;52.268;6.770;2022-12-18T17:37:07;18.60;;;10.60;;
21352;SDS011;10834;52.268;6.770;2022-12-18T17:39:53;18.53;;;9.73;;
21352;SDS011;10834;52.268;6.770;2022-12-18T17:42:39;20.33;;;12.03;;
21352;SDS011;10834;52.268;6.770;2022-12-18T17:45:25;21.30;;;11.50;;
21352;SDS011;10834;52.268;6.770;2022-12-18T17:48:12;16.80;;;11.07;;
21352;SDS011;10834;52.268;6.770;2022-12-18T17:51:02;15.47;;;9.07;;
21352;SDS011;10834;52.268;6.770;2022-12-18T17:53:49;15.73;;;9.23;;
21352;SDS011;10834;52.268;6.770;2022-12-18T17:56:36;14.73;;;9.97;;